Time;durP1;ratioP1;P1;durP2;ratioP2;P2;SDS_P1;SDS_P2;PMS_P1;PMS_P2;Temp;Humidity;BMP_temperature;BMP_pressure;BME280_temperature;BME280_humidity;BME280_pressure;Samples;Min_cycle;Max_cycle;Signal;HPM_P1;HPM_P2
2021/09/10 00:00:43;;;;;;;1.85;1.75;;;;;;;;;;5113618;28;20016;-74
2021/09/10 00:03:09;;;;;;;2.40;2.30;;;;;;;;;;5113742;28;20036;-74
2021/09/10 00:05:35;;;;;;;2.50;2.40;;;;;;;;;;5113703;28;20023;-75
2021/09/10 00:08:01;;;;;;;1.88;1.77;;;;;;;;;;5113524;28;20498;-75
2021/09/10 00:10:28;;;;;;;1.60;1.50;;;;;;;;;;5113585;28;20059;-75
2021/09/10 00:12:54;;;;;;;1.45;1.35;;;;;;;;;;5113597;28;20024;-75
2021/09/10 00:15:20;;;;;;;1.58;1.48;;;;;;;;;;5113494;28;20479;-74
2021/09/10 00:17:45;;;;;;;1.45;1.35;;;;;;;;;;5116471;28;20054;-75
2021/09/10 00:20:12;;;;;;;1.95;1.80;;;;;;;;;;5117531;28;20035;-75
2021/09/10 00:22:38;;;;;;;2.25;2.15;;;;;;;;;;5117595;28;20053;-75
2021/09/10 00:25:04;;;;;;;1.85;1.75;;;;;;;;;;5116770;28;20031;-75
2021/09/10 00:27:30;;;;;;;1.67;1.58;;;;;;;;;;5117366;28;20019;-75
2021/09/10 00:29:56;;;;;;;2.03;1.92;;;;;;;;;;5117373;28;20034;-76
2021/09/10 00:32:21;;;;;;;1.42;1.33;;;;;;;;;;5117292;28;20033;-75
2021/09/10 00:34:47;;;;;;;2.35;2.25;;;;;;;;;;5117102;28;20031;-75
2021/09/10 00:37:13;;;;;;;1.63;1.52;;;;;;;;;;5117328;28;20026;-75
2021/09/10 00:39:38;;;;;;;1.98;1.88;;;;;;;;;;5117065;28;20045;-75
2021/09/10 00:42:04;;;;;;;1.73;1.63;;;;;;;;;;5117088;28;20026;-75
2021/09/10 00:44:30;;;;;;;1.85;1.75;;;;;;;;;;5116868;28;20093;-75
2021/09/10 00:46:56;;;;;;;2.70;2.53;;;;;;;;;;5098669;28;20118;-75
2021/09/10 00:49:22;;;;;;;3.72;3.53;;;;;;;;;;5117095;28;20099;-75
2021/09/10 00:51:48;;;;;;;3.78;3.58;;;;;;;;;;5116904;28;20020;-75
2021/09/10 00:54:14;;;;;;;1.63;1.52;;;;;;;;;;5116930;28;20038;-75
2021/09/10 00:56:39;;;;;;;1.52;1.42;;;;;;;;;;5116763;28;20090;-75
2021/09/10 00:59:05;;;;;;;1.70;1.60;;;;;;;;;;5116799;28;20103;-74
2021/09/10 01:01:32;;;;;;;2.03;1.92;;;;;;;;;;5117240;28;20024;-75
2021/09/10 01:03:58;;;;;;;2.55;2.38;;;;;;;;;;5117313;28;20061;-75
2021/09/10 01:06:26;;;;;;;1.55;1.45;;;;;;;;;;5116788;28;20348;-75
2021/09/10 01:08:52;;;;;;;1.60;1.50;;;;;;;;;;5116490;28;20027;-75
2021/09/10 01:11:18;;;;;;;1.75;1.65;;;;;;;;;;5117103;28;20368;-76
2021/09/10 01:13:45;;;;;;;1.48;1.38;;;;;;;;;;5116404;28;20030;-75
2021/09/10 01:16:12;;;;;;;1.73;1.63;;;;;;;;;;5116346;28;20023;-74
2021/09/10 01:18:38;;;;;;;1.65;1.55;;;;;;;;;;5116606;28;20015;-75
2021/09/10 01:21:03;;;;;;;1.17;1.05;;;;;;;;;;5116255;28;20102;-75
2021/09/10 01:23:29;;;;;;;1.35;1.25;;;;;;;;;;5116354;28;20051;-75
2021/09/10 01:25:55;;;;;;;1.65;1.55;;;;;;;;;;5116902;28;20076;-74
2021/09/10 01:28:21;;;;;;;1.60;1.50;;;;;;;;;;5115824;28;20077;-75
2021/09/10 01:30:47;;;;;;;2.50;2.33;;;;;;;;;;5116157;28;20024;-75
2021/09/10 01:33:13;;;;;;;3.20;2.42;;;;;;;;;;5116077;28;20024;-75
2021/09/10 01:35:39;;;;;;;1.60;1.50;;;;;;;;;;5116047;28;20034;-75
2021/09/10 01:38:07;;;;;;;1.90;1.80;;;;;;;;;;5116029;28;20024;-76
2021/09/10 01:40:33;;;;;;;1.52;1.42;;;;;;;;;;5115976;28;20467;-75
2021/09/10 01:42:59;;;;;;;2.00;1.90;;;;;;;;;;5115984;28;20027;-75
2021/09/10 01:45:26;;;;;;;2.15;2.05;;;;;;;;;;5114425;28;20048;-75
2021/09/10 01:47:52;;;;;;;1.48;1.38;;;;;;;;;;5115837;28;20103;-77
2021/09/10 01:50:19;;;;;;;1.58;1.48;;;;;;;;;;5115832;28;20471;-78
2021/09/10 01:52:45;;;;;;;2.90;2.70;;;;;;;;;;5115711;28;20056;-75
2021/09/10 01:55:13;;;;;;;1.70;1.60;;;;;;;;;;5115597;28;20052;-76
2021/09/10 01:57:43;;;;;;;2.75;2.58;;;;;;;;;;5115597;28;20055;-75
2021/09/10 02:00:10;;;;;;;1.48;1.38;;;;;;;;;;5115560;28;20031;-75
2021/09/10 02:02:35;;;;;;;1.35;1.25;;;;;;;;;;5115556;28;20395;-76
2021/09/10 02:05:01;;;;;;;3.28;3.08;;;;;;;;;;5115506;28;20180;-75
2021/09/10 02:07:27;;;;;;;1.65;1.55;;;;;;;;;;5115350;28;20028;-76
2021/09/10 02:09:52;;;;;;;1.58;1.48;;;;;;;;;;5097045;28;20467;-75
2021/09/10 02:12:18;;;;;;;1.80;1.70;;;;;;;;;;5115339;28;20054;-76
2021/09/10 02:14:43;;;;;;;1.65;1.55;;;;;;;;;;5114710;28;20111;-75
2021/09/10 02:17:09;;;;;;;3.60;3.40;;;;;;;;;;5115238;28;20397;-75
2021/09/10 02:19:35;;;;;;;1.88;1.77;;;;;;;;;;5115185;28;20470;-76
2021/09/10 02:22:01;;;;;;;1.27;1.17;;;;;;;;;;5115120;28;20028;-75
2021/09/10 02:24:27;;;;;;;2.42;2.30;;;;;;;;;;5115369;28;20471;-76
2021/09/10 02:26:53;;;;;;;3.53;1.98;;;;;;;;;;5115743;28;20039;-76
2021/09/10 02:29:18;;;;;;;1.77;1.67;;;;;;;;;;5115195;28;20428;-76
2021/09/10 02:31:44;;;;;;;2.22;2.13;;;;;;;;;;5119578;28;20046;-75
2021/09/10 02:34:10;;;;;;;1.50;1.40;;;;;;;;;;5103235;28;20020;-76
2021/09/10 02:36:36;;;;;;;1.42;1.33;;;;;;;;;;5116689;28;20042;-75
2021/09/10 02:39:05;;;;;;;1.73;1.63;;;;;;;;;;5114747;28;20225;-76
2021/09/10 02:41:32;;;;;;;1.15;1.05;;;;;;;;;;5114883;28;20020;-75
2021/09/10 02:43:57;;;;;;;2.83;2.65;;;;;;;;;;5114568;28;20019;-76
2021/09/10 02:46:23;;;;;;;1.95;1.85;;;;;;;;;;5114766;28;20035;-75
2021/09/10 02:48:49;;;;;;;1.58;1.48;;;;;;;;;;5114872;28;20479;-75
2021/09/10 02:51:14;;;;;;;1.20;1.10;;;;;;;;;;5079503;28;20030;-75
2021/09/10 02:53:40;;;;;;;1.60;1.50;;;;;;;;;;5096323;28;20035;-75
2021/09/10 02:56:05;;;;;;;1.65;1.55;;;;;;;;;;5114754;28;20027;-76
2021/09/10 02:58:31;;;;;;;1.45;1.35;;;;;;;;;;5114389;28;20031;-75
2021/09/10 03:00:59;;;;;;;1.58;1.48;;;;;;;;;;5114419;28;20042;-75
2021/09/10 03:03:29;;;;;;;2.08;1.98;;;;;;;;;;5114337;28;20024;-76
2021/09/10 03:05:55;;;;;;;1.27;1.17;;;;;;;;;;5095979;28;20481;-75
2021/09/10 03:08:21;;;;;;;2.08;1.98;;;;;;;;;;5114525;28;20030;-75
2021/09/10 03:10:47;;;;;;;1.35;1.25;;;;;;;;;;5096291;28;20076;-75
2021/09/10 03:13:13;;;;;;;1.83;1.73;;;;;;;;;;5114174;28;20027;-75
2021/09/10 03:15:38;;;;;;;1.13;1.02;;;;;;;;;;5095790;28;20433;-74
2021/09/10 03:18:04;;;;;;;6.35;2.22;;;;;;;;;;5114098;28;20032;-75
2021/09/10 03:20:30;;;;;;;1.58;1.48;;;;;;;;;;5114096;28;20028;-75
2021/09/10 03:22:56;;;;;;;1.88;1.77;;;;;;;;;;5114221;28;20475;-75
2021/09/10 03:25:21;;;;;;;1.85;1.75;;;;;;;;;;5095842;28;20065;-75
2021/09/10 03:27:47;;;;;;;1.58;1.48;;;;;;;;;;5114144;28;20476;-75
2021/09/10 03:30:13;;;;;;;1.85;1.75;;;;;;;;;;5115112;28;20016;-75
2021/09/10 03:32:40;;;;;;;3.72;3.53;;;;;;;;;;5096406;28;20488;-76
2021/09/10 03:35:06;;;;;;;1.23;1.13;;;;;;;;;;5114052;28;20020;-76
2021/09/10 03:37:32;;;;;;;1.90;1.80;;;;;;;;;;5114054;28;20023;-76
2021/09/10 03:39:57;;;;;;;1.95;1.85;;;;;;;;;;5114038;28;20416;-76
2021/09/10 03:42:23;;;;;;;1.15;1.05;;;;;;;;;;5113891;28;20039;-76
2021/09/10 03:44:49;;;;;;;2.15;2.05;;;;;;;;;;5113821;28;20121;-76
2021/09/10 03:47:14;;;;;;;1.60;1.50;;;;;;;;;;5114011;28;20491;-76
2021/09/10 03:49:40;;;;;;;1.40;1.30;;;;;;;;;;5113809;28;20066;-76
2021/09/10 03:52:06;;;;;;;1.77;1.67;;;;;;;;;;5117654;28;20027;-76
2021/09/10 03:54:32;;;;;;;1.90;1.80;;;;;;;;;;5117833;28;20060;-75
2021/09/10 03:56:58;;;;;;;2.70;2.50;;;;;;;;;;5117933;28;20024;-74
2021/09/10 03:59:23;;;;;;;1.73;1.63;;;;;;;;;;5099575;28;20502;-77
2021/09/10 04:01:50;;;;;;;1.33;1.23;;;;;;;;;;5117830;28;20026;-75
2021/09/10 04:04:16;;;;;;;1.92;1.83;;;;;;;;;;5117851;28;20032;-75
2021/09/10 04:06:42;;;;;;;1.27;1.17;;;;;;;;;;5117746;28;20031;-76
2021/09/10 04:09:07;;;;;;;2.03;1.92;;;;;;;;;;5099819;28;20024;-76
2021/09/10 04:11:33;;;;;;;1.92;1.83;;;;;;;;;;5117688;28;20016;-78
2021/09/10 04:13:59;;;;;;;1.58;1.48;;;;;;;;;;5117543;28;20518;-75
2021/09/10 04:16:24;;;;;;;1.83;1.73;;;;;;;;;;5118173;28;20023;-75
2021/09/10 04:18:50;;;;;;;1.73;1.63;;;;;;;;;;5099263;28;20053;-75
2021/09/10 04:21:16;;;;;;;1.83;1.73;;;;;;;;;;5117538;28;20463;-75
2021/09/10 04:23:41;;;;;;;1.88;1.77;;;;;;;;;;5117433;28;20024;-74
2021/09/10 04:26:07;;;;;;;1.40;1.30;;;;;;;;;;5117376;28;20038;-75
2021/09/10 04:28:32;;;;;;;1.85;1.75;;;;;;;;;;5117353;28;20474;-74
2021/09/10 04:30:58;;;;;;;1.42;1.33;;;;;;;;;;5099304;28;20034;-75
2021/09/10 04:33:24;;;;;;;1.65;1.55;;;;;;;;;;5117266;28;20027;-74
2021/09/10 04:35:49;;;;;;;1.58;1.48;;;;;;;;;;5117079;28;20032;-75
2021/09/10 04:38:15;;;;;;;2.33;2.22;;;;;;;;;;5117414;28;20125;-74
2021/09/10 04:40:41;;;;;;;1.67;1.58;;;;;;;;;;5117122;28;20054;-74
2021/09/10 04:43:07;;;;;;;2.17;2.05;;;;;;;;;;5117125;28;20031;-75
2021/09/10 04:45:32;;;;;;;2.10;2.00;;;;;;;;;;5116923;28;20043;-75
2021/09/10 04:47:58;;;;;;;1.65;1.55;;;;;;;;;;5117129;28;20028;-75
2021/09/10 04:50:24;;;;;;;1.60;1.50;;;;;;;;;;5117087;28;20043;-74
2021/09/10 04:52:49;;;;;;;1.35;1.25;;;;;;;;;;5116954;28;20055;-74
2021/09/10 04:55:16;;;;;;;1.67;1.58;;;;;;;;;;5116697;28;20031;-74
2021/09/10 04:57:42;;;;;;;2.67;2.53;;;;;;;;;;5116794;28;20027;-74
2021/09/10 05:00:08;;;;;;;2.78;2.58;;;;;;;;;;5116830;28;20072;-74
2021/09/10 05:02:34;;;;;;;3.08;2.88;;;;;;;;;;5097533;28;20023;-74
2021/09/10 05:04:59;;;;;;;1.67;1.58;;;;;;;;;;5116752;28;20038;-74
2021/09/10 05:07:25;;;;;;;1.88;1.77;;;;;;;;;;5116594;28;20023;-74
2021/09/10 05:09:51;;;;;;;1.27;1.17;;;;;;;;;;5116496;28;20348;-75
2021/09/10 05:12:16;;;;;;;3.03;2.83;;;;;;;;;;5116553;28;20501;-74
2021/09/10 05:14:42;;;;;;;1.50;1.40;;;;;;;;;;5098130;28;20031;-75
2021/09/10 05:17:10;;;;;;;2.20;2.10;;;;;;;;;;5116426;28;20024;-74
2021/09/10 05:19:36;;;;;;;1.85;1.75;;;;;;;;;;5116301;28;20020;-74
2021/09/10 05:22:02;;;;;;;1.45;1.35;;;;;;;;;;5116500;28;20073;-74
2021/09/10 05:24:27;;;;;;;3.05;2.85;;;;;;;;;;5116227;28;20020;-74
2021/09/10 05:26:53;;;;;;;2.45;2.30;;;;;;;;;;5116132;28;20024;-74
2021/09/10 05:29:19;;;;;;;1.65;1.55;;;;;;;;;;5116440;28;20068;-74
2021/09/10 05:31:44;;;;;;;1.23;1.13;;;;;;;;;;5116198;28;20375;-74
2021/09/10 05:34:11;;;;;;;2.03;1.92;;;;;;;;;;5115936;28;20031;-76
2021/09/10 05:36:38;;;;;;;1.17;1.08;;;;;;;;;;5116100;28;20023;-74
2021/09/10 05:39:03;;;;;;;1.65;1.55;;;;;;;;;;5116047;28;20020;-74
2021/09/10 05:41:29;;;;;;;2.70;2.50;;;;;;;;;;5097609;28;20479;-75
2021/09/10 05:43:55;;;;;;;2.45;2.28;;;;;;;;;;5115726;28;20016;-74
2021/09/10 05:46:20;;;;;;;0.75;0.50;;;;;;;;;;5097962;28;20070;-75
2021/09/10 05:48:46;;;;;;;2.90;2.70;;;;;;;;;;5115875;28;20031;-76
2021/09/10 05:51:12;;;;;;;2.33;2.20;;;;;;;;;;5115943;28;20548;-76
2021/09/10 05:53:38;;;;;;;2.17;2.08;;;;;;;;;;5115964;28;20099;-75
2021/09/10 05:56:04;;;;;;;1.25;1.15;;;;;;;;;;5097618;28;20462;-76
2021/09/10 05:58:30;;;;;;;2.17;1.98;;;;;;;;;;5115617;28;20028;-75
2021/09/10 06:00:55;;;;;;;2.70;2.50;;;;;;;;;;5114401;28;20024;-75
2021/09/10 06:03:21;;;;;;;1.67;1.58;;;;;;;;;;5115908;28;20031;-74
2021/09/10 06:05:47;;;;;;;3.60;3.00;;;;;;;;;;5115122;28;20032;-74
2021/09/10 06:08:12;;;;;;;1.55;1.25;;;;;;;;;;5115456;28;20436;-74
2021/09/10 06:10:38;;;;;;;5.78;3.45;;;;;;;;;;5115421;28;20085;-75
2021/09/10 06:13:05;;;;;;;1.50;1.33;;;;;;;;;;5115211;28;20383;-75
2021/09/10 06:15:30;;;;;;;4.18;3.25;;;;;;;;;;5114393;28;20032;-74
2021/09/10 06:17:56;;;;;;;2.65;1.85;;;;;;;;;;5115158;28;20024;-75
2021/09/10 06:20:21;;;;;;;3.47;3.17;;;;;;;;;;5115203;28;20032;-76
2021/09/10 06:22:47;;;;;;;3.75;3.45;;;;;;;;;;5115394;28;20027;-76
2021/09/10 06:25:13;;;;;;;2.78;2.17;;;;;;;;;;5115520;28;20034;-76
2021/09/10 06:27:38;;;;;;;3.80;3.50;;;;;;;;;;5115088;28;20027;-75
2021/09/10 06:30:06;;;;;;;1.77;1.67;;;;;;;;;;5115043;28;20173;-76
2021/09/10 06:32:32;;;;;;;3.10;2.80;;;;;;;;;;5114983;28;20055;-74
2021/09/10 06:34:58;;;;;;;2.53;2.33;;;;;;;;;;5114828;28;20028;-75
2021/09/10 06:37:24;;;;;;;2.40;2.22;;;;;;;;;;5114955;28;20027;-75
2021/09/10 06:39:50;;;;;;;1.80;0.70;;;;;;;;;;5096652;28;20380;-74
2021/09/10 06:42:16;;;;;;;2.75;2.47;;;;;;;;;;5115204;28;20031;-75
2021/09/10 06:44:41;;;;;;;2.38;2.17;;;;;;;;;;5118968;28;20047;-75
2021/09/10 06:47:07;;;;;;;2.45;2.25;;;;;;;;;;5127018;28;20024;-75
2021/09/10 06:49:33;;;;;;;4.60;4.03;;;;;;;;;;5120171;28;20032;-74
2021/09/10 06:51:59;;;;;;;4.13;3.83;;;;;;;;;;5115553;28;20019;-74
2021/09/10 06:54:24;;;;;;;3.13;2.30;;;;;;;;;;5114906;28;20108;-74
2021/09/10 06:56:50;;;;;;;2.58;2.38;;;;;;;;;;5114650;28;20020;-76
2021/09/10 06:59:19;;;;;;;2.55;2.35;;;;;;;;;;5114528;28;20133;-75
2021/09/10 07:01:48;;;;;;;3.10;2.90;;;;;;;;;;5114354;28;20023;-75
2021/09/10 07:04:14;;;;;;;3.33;3.13;;;;;;;;;;5114428;28;20031;-75
2021/09/10 07:06:40;;;;;;;2.40;2.20;;;;;;;;;;5114625;28;20076;-75
2021/09/10 07:09:05;;;;;;;2.22;2.03;;;;;;;;;;5096045;28;20115;-75
2021/09/10 07:11:32;;;;;;;4.15;1.65;;;;;;;;;;5114316;28;20023;-75
2021/09/10 07:14:02;;;;;;;4.32;4.03;;;;;;;;;;5100308;28;20144;-75
2021/09/10 07:16:28;;;;;;;2.95;2.65;;;;;;;;;;5113959;28;20080;-76
2021/09/10 07:18:54;;;;;;;2.08;1.92;;;;;;;;;;5113616;28;20030;-75
2021/09/10 07:21:19;;;;;;;1.73;1.45;;;;;;;;;;5114090;28;20094;-75
2021/09/10 07:23:45;;;;;;;3.78;3.35;;;;;;;;;;5113921;28;20024;-76
2021/09/10 07:26:11;;;;;;;3.50;3.30;;;;;;;;;;5095281;28;20480;-75
2021/09/10 07:28:37;;;;;;;3.90;3.20;;;;;;;;;;5114002;28;20102;-76
2021/09/10 07:31:04;;;;;;;4.32;3.13;;;;;;;;;;5113764;28;20059;-75
2021/09/10 07:33:31;;;;;;;2.22;2.00;;;;;;;;;;5113900;28;20023;-75
2021/09/10 07:35:56;;;;;;;7.32;1.92;;;;;;;;;;5113817;28;20027;-76
2021/09/10 07:38:22;;;;;;;3.45;3.20;;;;;;;;;;5113780;28;20565;-75
2021/09/10 07:40:48;;;;;;;3.15;1.80;;;;;;;;;;5113757;28;20024;-76
2021/09/10 07:43:14;;;;;;;3.08;2.78;;;;;;;;;;5113812;28;20111;-75
2021/09/10 07:45:40;;;;;;;2.95;1.95;;;;;;;;;;5113465;28;20116;-76
2021/09/10 07:48:07;;;;;;;1.95;0.95;;;;;;;;;;5109346;28;20384;-76
2021/09/10 07:50:33;;;;;;;3.03;2.17;;;;;;;;;;5113156;28;20035;-85
2021/09/10 07:52:59;;;;;;;3.40;3.10;;;;;;;;;;5112686;28;20471;-76
2021/09/10 07:55:24;;;;;;;3.95;3.00;;;;;;;;;;5095186;28;20088;-85
2021/09/10 07:57:50;;;;;;;3.88;2.55;;;;;;;;;;5113901;28;20092;-77
2021/09/10 08:00:20;;;;;;;2.42;2.22;;;;;;;;;;5113621;28;20480;-76
2021/09/10 08:02:46;;;;;;;2.63;2.13;;;;;;;;;;5113612;28;20023;-86
2021/09/10 08:05:12;;;;;;;2.85;2.63;;;;;;;;;;5113451;28;20550;-76
2021/09/10 08:07:37;;;;;;;3.83;2.95;;;;;;;;;;5113047;28;20027;-75
2021/09/10 08:10:04;;;;;;;3.28;2.53;;;;;;;;;;5113185;28;20047;-75
2021/09/10 08:12:29;;;;;;;1.88;1.70;;;;;;;;;;5113312;28;20023;-75
2021/09/10 08:14:56;;;;;;;2.25;2.03;;;;;;;;;;5113307;28;20583;-75
2021/09/10 08:17:21;;;;;;;4.03;3.72;;;;;;;;;;5113433;28;20031;-76
2021/09/10 08:19:49;;;;;;;2.85;2.55;;;;;;;;;;5113485;28;20027;-77
2021/09/10 08:22:16;;;;;;;2.17;1.88;;;;;;;;;;5113879;28;20364;-80
2021/09/10 08:24:41;;;;;;;6.90;3.90;;;;;;;;;;5113409;28;20037;-75
2021/09/10 08:27:07;;;;;;;3.97;2.75;;;;;;;;;;5113443;28;20140;-76
2021/09/10 08:29:32;;;;;;;2.53;1.10;;;;;;;;;;5113339;28;20436;-84
2021/09/10 08:31:58;;;;;;;3.65;1.88;;;;;;;;;;5113457;28;20027;-84
2021/09/10 08:34:24;;;;;;;2.63;2.42;;;;;;;;;;5078242;28;20058;-83
2021/09/10 08:36:49;;;;;;;11.32;2.90;;;;;;;;;;5113100;28;20028;-75
2021/09/10 08:39:15;;;;;;;4.38;2.22;;;;;;;;;;5098624;28;20078;-75
2021/09/10 08:41:43;;;;;;;4.20;3.25;;;;;;;;;;5117113;28;20501;-75
2021/09/10 08:44:11;;;;;;;3.30;3.00;;;;;;;;;;5116705;28;21095;-75
2021/09/10 08:46:38;;;;;;;6.32;3.03;;;;;;;;;;5116970;28;20027;-75
2021/09/10 08:49:07;;;;;;;3.25;1.95;;;;;;;;;;5116859;28;20148;-80
2021/09/10 08:51:32;;;;;;;7.78;2.83;;;;;;;;;;5115737;28;20027;-86
2021/09/10 08:53:58;;;;;;;3.63;1.58;;;;;;;;;;5117170;28;20391;-82
2021/09/10 08:56:24;;;;;;;6.55;3.28;;;;;;;;;;5099262;28;20471;-78
2021/09/10 08:58:49;;;;;;;3.85;3.38;;;;;;;;;;5099191;28;20456;-80
2021/09/10 09:01:15;;;;;;;3.25;1.95;;;;;;;;;;5116965;28;20035;-77
2021/09/10 09:03:40;;;;;;;3.13;2.13;;;;;;;;;;5116662;28;20030;-76
2021/09/10 09:06:06;;;;;;;4.32;2.30;;;;;;;;;;5116997;28;20050;-78
2021/09/10 09:08:32;;;;;;;3.03;1.83;;;;;;;;;;5115059;28;20032;-77
2021/09/10 09:11:06;;;;;;;3.97;2.60;;;;;;;;;;5115446;28;20023;-76
2021/09/10 09:13:38;;;;;;;6.50;1.88;;;;;;;;;;5116533;28;20435;-77
2021/09/10 09:16:28;;;;;;;3.15;2.70;;;;;;;;;;5116485;28;20490;-77
2021/09/10 09:18:58;;;;;;;2.65;2.33;;;;;;;;;;5118092;28;20028;-76
2021/09/10 09:21:41;;;;;;;3.00;2.70;;;;;;;;;;5099549;28;20027;-77
2021/09/10 09:24:13;;;;;;;3.15;1.73;;;;;;;;;;5098179;28;20088;-77
2021/09/10 09:26:40;;;;;;;6.30;2.20;;;;;;;;;;5116142;28;20024;-77
2021/09/10 09:29:08;;;;;;;3.85;2.58;;;;;;;;;;5116154;28;20023;-77
2021/09/10 09:31:36;;;;;;;3.15;2.70;;;;;;;;;;5116083;28;20027;-75
2021/09/10 09:34:06;;;;;;;3.45;1.45;;;;;;;;;;5115324;28;20364;-81
2021/09/10 09:36:49;;;;;;;5.82;2.50;;;;;;;;;;5116251;28;20058;-77
2021/09/10 09:39:15;;;;;;;3.30;0.68;;;;;;;;;;5097965;28;20023;-80
2021/09/10 09:41:46;;;;;;;3.05;2.33;;;;;;;;;;5116153;28;20046;-76
2021/09/10 09:44:16;;;;;;;2.72;1.98;;;;;;;;;;5115729;28;20564;-82
2021/09/10 09:46:44;;;;;;;2.92;2.13;;;;;;;;;;5116181;28;20020;-77
2021/09/10 09:49:14;;;;;;;3.15;2.83;;;;;;;;;;5097173;28;20471;-76
2021/09/10 09:52:01;;;;;;;4.38;2.17;;;;;;;;;;5115782;28;20020;-76
2021/09/10 09:54:27;;;;;;;2.72;2.00;;;;;;;;;;5113875;28;20471;-80
2021/09/10 09:56:54;;;;;;;1.63;0.45;;;;;;;;;;5115977;28;20132;-78
2021/09/10 09:59:20;;;;;;;3.38;2.08;;;;;;;;;;5116857;28;20015;-87
2021/09/10 10:01:47;;;;;;;4.20;2.33;;;;;;;;;;5116642;28;20028;-77
2021/09/10 10:04:12;;;;;;;1.98;0.77;;;;;;;;;;5116272;28;20023;-77
2021/09/10 10:06:39;;;;;;;1.75;0.68;;;;;;;;;;5115827;28;20352;-77
2021/09/10 10:09:12;;;;;;;3.35;2.35;;;;;;;;;;5102979;28;20048;-84
2021/09/10 10:11:44;;;;;;;4.47;2.22;;;;;;;;;;5095314;28;20103;-87
2021/09/10 10:14:13;;;;;;;4.53;2.50;;;;;;;;;;5095508;28;20102;-76
2021/09/10 10:16:40;;;;;;;;;;;;;;;;;;5096061;28;20028;-83
2021/09/10 10:19:27;;;;;;;4.68;0.45;;;;;;;;;;5094107;28;20403;-80
2021/09/10 10:21:54;;;;;;;5.97;1.10;;;;;;;;;;5114958;28;20034;-78
2021/09/10 10:24:44;;;;;;;2.70;2.40;;;;;;;;;;5115629;28;20073;-81
2021/09/10 10:27:43;;;;;;;1.73;0.50;;;;;;;;;;5114673;28;20031;-77
2021/09/10 10:30:15;;;;;;;3.35;2.38;;;;;;;;;;5030619;28;20028;-77
2021/09/10 10:32:43;;;;;;;3.22;1.77;;;;;;;;;;5052507;28;20505;-77
2021/09/10 10:35:15;;;;;;;2.50;0.80;;;;;;;;;;5052385;28;20036;-77
2021/09/10 10:37:47;;;;;;;5.72;2.70;;;;;;;;;;5052357;28;20111;-78
2021/09/10 10:40:38;;;;;;;3.92;3.58;;;;;;;;;;5052070;28;20124;-76
2021/09/10 10:43:28;;;;;;;2.90;2.47;;;;;;;;;;5059259;28;20033;-77
2021/09/10 10:46:07;;;;;;;5.13;2.50;;;;;;;;;;5055860;28;20072;-77
2021/09/10 10:48:33;;;;;;;4.28;2.35;;;;;;;;;;5053402;28;20039;-77
2021/09/10 10:51:06;;;;;;;2.70;2.00;;;;;;;;;;5053102;28;20108;-78
2021/09/10 10:53:46;;;;;;;4.65;3.70;;;;;;;;;;5035376;28;20511;-77
2021/09/10 10:56:24;;;;;;;2.47;0.63;;;;;;;;;;5035258;28;20047;-77
2021/09/10 10:59:11;;;;;;;5.80;3.15;;;;;;;;;;5051785;28;20033;-77
2021/09/10 11:02:14;;;;;;;1.02;0.50;;;;;;;;;;5051376;28;20418;-78
2021/09/10 11:04:48;;;;;;;4.38;2.45;;;;;;;;;;5054803;28;20035;-78
2021/09/10 11:07:18;;;;;;;2.83;2.45;;;;;;;;;;5094777;28;20024;-78
2021/09/10 11:10:07;;;;;;;3.08;2.15;;;;;;;;;;5095006;28;20024;-79
2021/09/10 11:12:38;;;;;;;2.78;1.50;;;;;;;;;;5094984;28;20028;-76
2021/09/10 11:15:28;;;;;;;3.83;2.85;;;;;;;;;;5093668;28;20119;-77
2021/09/10 11:18:00;;;;;;;5.78;3.00;;;;;;;;;;5093452;28;20026;-77
2021/09/10 11:20:28;;;;;;;3.58;2.40;;;;;;;;;;5095221;28;20023;-77
2021/09/10 11:22:53;;;;;;;3.47;2.55;;;;;;;;;;5114288;28;20114;-77
2021/09/10 11:25:19;;;;;;;3.38;2.63;;;;;;;;;;5114322;28;20527;-76
2021/09/10 11:27:45;;;;;;;5.75;2.53;;;;;;;;;;5113449;28;20088;-77
2021/09/10 11:30:13;;;;;;;3.05;2.75;;;;;;;;;;5113195;28;20028;-77
2021/09/10 11:32:39;;;;;;;5.63;2.80;;;;;;;;;;5113289;28;20028;-77
2021/09/10 11:35:26;;;;;;;4.35;2.58;;;;;;;;;;5112845;28;20067;-80
2021/09/10 11:37:54;;;;;;;3.10;0.55;;;;;;;;;;5113559;28;20023;-78
2021/09/10 11:40:35;;;;;;;3.53;3.17;;;;;;;;;;5113929;28;20094;-79
2021/09/10 11:43:11;;;;;;;1.40;0.60;;;;;;;;;;5095667;28;20482;-76
2021/09/10 11:45:38;;;;;;;;;;;;;;;;;;5114299;28;20108;-77
2021/09/10 11:48:11;;;;;;;2.40;1.77;;;;;;;;;;5097040;28;19911;-81
2021/09/10 11:50:45;;;;;;;3.45;2.58;;;;;;;;;;5114640;28;20081;-76
2021/09/10 11:53:18;;;;;;;1.90;0.50;;;;;;;;;;5113688;28;20539;-77
2021/09/10 11:55:59;;;;;;;2.72;0.50;;;;;;;;;;5113385;28;20032;-76
2021/09/10 11:58:44;;;;;;;2.65;0.60;;;;;;;;;;5113431;28;20020;-79
2021/09/10 12:01:13;;;;;;;2.85;2.20;;;;;;;;;;5113741;28;20032;-78
2021/09/10 12:03:56;;;;;;;4.80;2.88;;;;;;;;;;5113077;28;20092;-76
2021/09/10 12:06:23;;;;;;;3.83;0.88;;;;;;;;;;5114010;28;20429;-77
2021/09/10 12:09:22;;;;;;;3.25;2.78;;;;;;;;;;5093765;28;20027;-79
2021/09/10 12:12:17;;;;;;;4.60;2.65;;;;;;;;;;5076984;28;20024;-77
2021/09/10 12:14:51;;;;;;;3.35;0.98;;;;;;;;;;5097073;28;20365;-76
2021/09/10 12:17:26;;;;;;;3.15;1.98;;;;;;;;;;5097238;28;20059;-78
2021/09/10 12:19:57;;;;;;;4.93;3.03;;;;;;;;;;5079104;28;20411;-78
2021/09/10 12:22:36;;;;;;;4.50;2.05;;;;;;;;;;5097487;28;20391;-77
2021/09/10 12:25:23;;;;;;;2.47;0.57;;;;;;;;;;5097101;28;20020;-77
2021/09/10 12:28:14;;;;;;;1.90;0.38;;;;;;;;;;5079110;28;20088;-75
2021/09/10 12:31:09;;;;;;;3.47;2.90;;;;;;;;;;5097049;28;20384;-76
2021/09/10 12:33:37;;;;;;;1.77;1.00;;;;;;;;;;5097154;28;20097;-77
2021/09/10 12:36:11;;;;;;;1.33;0.40;;;;;;;;;;5096713;28;20450;-75
2021/09/10 12:38:43;;;;;;;2.08;1.83;;;;;;;;;;5116040;28;20032;-75
2021/09/10 12:41:11;;;;;;;5.60;1.83;;;;;;;;;;5098827;28;20027;-77
2021/09/10 12:43:37;;;;;;;3.92;2.35;;;;;;;;;;5116403;28;20506;-74
2021/09/10 12:46:04;;;;;;;4.30;2.97;;;;;;;;;;5116755;28;20138;-78
2021/09/10 12:48:29;;;;;;;7.28;1.10;;;;;;;;;;5116372;28;20023;-76
2021/09/10 12:50:55;;;;;;;3.03;1.08;;;;;;;;;;5098643;28;20032;-74
2021/09/10 12:53:22;;;;;;;3.75;2.85;;;;;;;;;;5116320;28;20103;-74
2021/09/10 12:55:48;;;;;;;3.13;0.60;;;;;;;;;;5111708;28;20035;-74
2021/09/10 12:58:14;;;;;;;2.28;0.60;;;;;;;;;;5116011;28;20030;-75
2021/09/10 13:00:41;;;;;;;3.70;2.40;;;;;;;;;;5116630;28;20032;-74
2021/09/10 13:03:12;;;;;;;3.40;2.50;;;;;;;;;;5116786;28;20414;-78
2021/09/10 13:05:39;;;;;;;2.20;0.75;;;;;;;;;;5116601;28;20053;-77
2021/09/10 13:08:05;;;;;;;3.75;2.88;;;;;;;;;;5115845;28;20034;-78
2021/09/10 13:10:31;;;;;;;2.70;2.13;;;;;;;;;;5116622;28;20065;-77
2021/09/10 13:12:56;;;;;;;3.50;2.55;;;;;;;;;;5116778;28;20024;-77
2021/09/10 13:15:25;;;;;;;2.25;0.73;;;;;;;;;;5115636;28;20043;-76
2021/09/10 13:17:52;;;;;;;4.45;3.13;;;;;;;;;;5116367;28;20024;-75
2021/09/10 13:20:17;;;;;;;3.42;2.35;;;;;;;;;;5116999;28;20024;-76
2021/09/10 13:22:43;;;;;;;2.25;0.73;;;;;;;;;;5116204;28;20321;-77
2021/09/10 13:25:09;;;;;;;4.35;0.50;;;;;;;;;;5115398;28;20027;-76
2021/09/10 13:27:35;;;;;;;3.53;2.35;;;;;;;;;;5096164;28;20023;-76
2021/09/10 13:30:01;;;;;;;2.50;0.90;;;;;;;;;;5096223;28;20027;-79
2021/09/10 13:32:27;;;;;;;2.55;1.92;;;;;;;;;;5115145;28;20103;-76
2021/09/10 13:34:53;;;;;;;4.03;3.35;;;;;;;;;;5115107;28;20173;-79
2021/09/10 13:37:18;;;;;;;3.53;2.83;;;;;;;;;;5117768;28;20526;-76
2021/09/10 13:39:45;;;;;;;2.60;0.82;;;;;;;;;;5097573;28;20336;-75
2021/09/10 13:42:11;;;;;;;4.97;2.38;;;;;;;;;;5116855;28;20015;-77
2021/09/10 13:44:37;;;;;;;3.05;2.00;;;;;;;;;;5116149;28;20050;-75
2021/09/10 13:47:03;;;;;;;4.03;2.33;;;;;;;;;;5116577;28;20023;-75
2021/09/10 13:49:29;;;;;;;3.22;2.72;;;;;;;;;;5115873;28;20030;-76
2021/09/10 13:51:55;;;;;;;3.85;2.22;;;;;;;;;;5116232;28;20030;-75
2021/09/10 13:54:22;;;;;;;2.83;2.42;;;;;;;;;;5115652;28;20055;-76
2021/09/10 13:56:48;;;;;;;2.17;0.47;;;;;;;;;;5115831;28;20023;-77
2021/09/10 13:59:14;;;;;;;2.80;1.50;;;;;;;;;;5097448;28;20020;-77
2021/09/10 14:01:40;;;;;;;3.67;0.57;;;;;;;;;;5115587;28;20494;-78
2021/09/10 14:04:05;;;;;;;3.13;0.68;;;;;;;;;;5097569;28;20027;-81
2021/09/10 14:06:31;;;;;;;2.83;1.75;;;;;;;;;;5115512;28;20551;-78
2021/09/10 14:08:57;;;;;;;2.10;1.00;;;;;;;;;;5115434;28;20023;-77
2021/09/10 14:11:22;;;;;;;3.63;0.88;;;;;;;;;;5115547;28;20023;-78
2021/09/10 14:13:48;;;;;;;3.33;2.22;;;;;;;;;;5115519;28;20028;-79
2021/09/10 14:16:14;;;;;;;3.97;3.08;;;;;;;;;;5115897;28;20128;-78
2021/09/10 14:18:40;;;;;;;4.15;0.55;;;;;;;;;;5118879;28;20042;-78
2021/09/10 14:21:06;;;;;;;3.97;2.72;;;;;;;;;;5098066;28;20027;-78
2021/09/10 14:23:32;;;;;;;3.15;1.88;;;;;;;;;;5115441;28;20100;-78
2021/09/10 14:25:58;;;;;;;3.33;2.78;;;;;;;;;;5116256;28;20022;-78
2021/09/10 14:28:24;;;;;;;2.38;2.17;;;;;;;;;;5115822;28;20020;-78
2021/09/10 14:30:49;;;;;;;2.38;2.08;;;;;;;;;;5115333;28;20081;-78
2021/09/10 14:33:15;;;;;;;5.93;0.70;;;;;;;;;;5115193;28;20528;-79
2021/09/10 14:35:41;;;;;;;4.22;1.30;;;;;;;;;;5114651;28;20102;-79
2021/09/10 14:38:06;;;;;;;7.20;3.47;;;;;;;;;;5115997;28;20028;-78
2021/09/10 14:40:33;;;;;;;3.38;3.08;;;;;;;;;;5116679;28;20028;-78
2021/09/10 14:43:00;;;;;;;3.22;2.92;;;;;;;;;;5133322;28;20072;-78
2021/09/10 14:45:27;;;;;;;3.40;2.70;;;;;;;;;;5127623;28;20082;-78
2021/09/10 14:47:53;;;;;;;3.58;2.53;;;;;;;;;;5115770;28;20027;-78